Forrester Center, West Virginia
Current Conditions -  °F | °C
As of 12:53 PM on Sunday 25 Jan 2015 (Local Time) from KMRB Reporting Station
Broken Clouds Broken Clouds  
Wind Chill:   Ceiling: 4800
Heat Index:   Visibility: 10mi
Dew Point: -1°   Wind: 3mph
Humidity: 54%   Direction: 200°SSW
Pressure: 29.8"   Gusts: NA
Location:  39.3053°N, 77.8555°W
Report Text: KMRB 251753Z 20003KT 10SM BKN048 08/M01 A2980 RMK AO2 SLP094 T00781011 10078 20039 58004
Loading
Personal Weather Stations






























Interactive Weather Map New forecast layout! Learn more

10-Day Weather Forecast

Advertisements
Track Severe Weather on mobile